createdAt,value
2023-05-18T00:01:25.347Z,5.40
2023-05-18T00:04:27.529Z,6.88
2023-05-18T00:07:30.297Z,8.82
2023-05-18T00:10:34.817Z,8.20
2023-05-18T00:13:38.728Z,8.45
2023-05-18T00:16:40.843Z,8.23
2023-05-18T00:19:42.744Z,8.57
2023-05-18T00:22:47.301Z,7.05
2023-05-18T00:25:52.219Z,7.50
2023-05-18T00:28:53.948Z,7.70
2023-05-18T00:31:55.702Z,6.85
2023-05-18T00:34:57.737Z,7.72
2023-05-18T00:38:00.434Z,7.57
2023-05-18T00:41:06.616Z,10.23
2023-05-18T00:44:10.648Z,5.95
2023-05-18T00:47:12.663Z,6.18
2023-05-18T00:50:15.002Z,7.32
2023-05-18T00:53:17.248Z,5.97
2023-05-18T00:56:23.942Z,7.32
2023-05-18T00:59:28.079Z,6.25
2023-05-18T01:02:30.004Z,6.43
2023-05-18T01:05:32.327Z,9.95
2023-05-18T01:08:35.610Z,8.40
2023-05-18T01:11:54.091Z,8.70
2023-05-18T01:15:03.717Z,6.60
2023-05-18T01:18:13.866Z,9.18
2023-05-18T01:21:24.106Z,7.15
2023-05-18T01:24:37.445Z,9.13
2023-05-18T01:27:46.066Z,8.95
2023-05-18T01:30:48.681Z,9.70
2023-05-18T01:33:50.717Z,7.88
2023-05-18T01:36:55.324Z,9.85
2023-05-18T01:39:57.561Z,11.95
2023-05-18T01:43:09.226Z,8.32
2023-05-18T01:46:17.080Z,8.93
2023-05-18T01:49:27.799Z,8.23
2023-05-18T01:52:34.553Z,7.35
2023-05-18T01:55:39.337Z,5.82
2023-05-18T01:58:45.545Z,7.30
2023-05-18T02:01:49.710Z,9.45
2023-05-18T02:04:53.978Z,7.20
2023-05-18T02:07:55.764Z,7.18
2023-05-18T02:10:57.571Z,7.68
2023-05-18T02:14:02.901Z,8.80
2023-05-18T02:17:05.192Z,8.90
2023-05-18T02:20:08.264Z,9.82
2023-05-18T02:23:11.702Z,10.55
2023-05-18T02:26:13.766Z,10.30
2023-05-18T02:29:17.150Z,11.50
2023-05-18T02:32:19.112Z,8.55
2023-05-18T02:35:21.126Z,12.43
2023-05-18T02:38:23.774Z,8.80
2023-05-18T02:41:25.757Z,15.82
2023-05-18T02:44:30.874Z,12.57
2023-05-18T02:47:35.092Z,11.25
2023-05-18T02:50:36.904Z,13.00
2023-05-18T02:53:38.633Z,9.90
2023-05-18T02:56:40.348Z,13.63
2023-05-18T02:59:45.538Z,9.88
2023-05-18T03:02:47.644Z,14.38
2023-05-18T03:05:52.528Z,12.05
2023-05-18T03:08:54.798Z,10.35
2023-05-18T03:11:58.748Z,10.23
2023-05-18T03:15:05.654Z,12.93
2023-05-18T03:18:10.532Z,16.52
2023-05-18T03:21:12.511Z,12.55
2023-05-18T03:24:14.240Z,11.82
2023-05-18T03:27:16.277Z,13.35
2023-05-18T03:30:21.760Z,12.38
2023-05-18T03:33:23.513Z,12.25
2023-05-18T03:36:27.842Z,14.32
2023-05-18T03:39:29.987Z,10.52
2023-05-18T03:42:34.070Z,9.65
2023-05-18T03:45:37.988Z,12.48
2023-05-18T03:48:40.285Z,12.20
2023-05-18T03:51:42.271Z,11.48
2023-05-18T03:54:44.078Z,10.68
2023-05-18T03:57:47.233Z,12.65
2023-05-18T04:00:50.627Z,12.90
2023-05-18T04:03:52.563Z,13.85
2023-05-18T04:06:54.440Z,12.15
2023-05-18T04:09:56.380Z,17.48
2023-05-18T04:12:58.772Z,14.18
2023-05-18T04:16:04.580Z,12.02
2023-05-18T04:19:08.421Z,13.80
2023-05-18T04:22:12.741Z,14.27
2023-05-18T04:25:15.012Z,11.93
2023-05-18T04:28:17.032Z,10.30
2023-05-18T04:31:20.551Z,12.38
2023-05-18T04:34:22.490Z,13.73
2023-05-18T04:37:24.250Z,12.18
2023-05-18T04:40:25.973Z,11.70
2023-05-18T04:43:27.719Z,12.02
2023-05-18T04:46:32.341Z,13.02
2023-05-18T04:49:34.236Z,10.65
2023-05-18T04:52:36.195Z,13.80
2023-05-18T04:55:38.497Z,13.88
2023-05-18T04:58:40.861Z,16.05
2023-05-18T05:01:44.387Z,15.73
2023-05-18T05:04:46.418Z,15.30
2023-05-18T05:07:49.894Z,14.90
2023-05-18T05:10:51.664Z,15.30
2023-05-18T05:13:53.402Z,11.80
2023-05-18T05:16:57.730Z,11.15
2023-05-18T05:19:59.867Z,14.00
2023-05-18T05:23:01.790Z,12.57
2023-05-18T05:26:06.390Z,11.70
2023-05-18T05:29:08.316Z,13.50
2023-05-18T05:32:12.493Z,11.98
2023-05-18T05:35:14.592Z,11.85
2023-05-18T05:38:17.625Z,14.98
2023-05-18T05:41:20.292Z,14.57
2023-05-18T05:44:22.355Z,15.02
2023-05-18T05:47:27.282Z,11.18
2023-05-18T05:50:29.108Z,11.60
2023-05-18T05:53:31.076Z,11.60
2023-05-18T05:56:32.819Z,13.60
2023-05-18T05:59:34.791Z,15.52
2023-05-18T06:02:39.001Z,12.38
2023-05-18T06:05:41.131Z,11.05
2023-05-18T06:08:43.077Z,11.73
2023-05-18T06:11:45.003Z,12.98
2023-05-18T06:14:47.340Z,13.52
2023-05-18T06:17:53.157Z,14.88
2023-05-18T06:20:56.329Z,13.68
2023-05-18T06:23:58.079Z,12.38
2023-05-18T06:27:00.046Z,13.57
2023-05-18T06:30:04.562Z,13.60
2023-05-18T06:33:10.728Z,13.02
2023-05-18T06:36:12.534Z,15.43
2023-05-18T06:39:16.724Z,12.68
2023-05-18T06:42:18.489Z,15.60
2023-05-18T06:45:20.923Z,17.33
2023-05-18T06:48:26.963Z,11.32
2023-05-18T06:51:30.111Z,14.52
2023-05-18T06:54:31.884Z,13.77
2023-05-18T06:57:33.893Z,12.77
2023-05-18T07:00:38.078Z,14.02
2023-05-18T07:03:44.149Z,11.50
2023-05-18T07:06:46.057Z,13.75
2023-05-18T07:09:47.815Z,19.42
2023-05-18T07:12:51.346Z,15.13
2023-05-18T07:15:53.921Z,14.05
2023-05-18T07:18:58.802Z,15.15
2023-05-18T07:22:01.086Z,12.82
2023-05-18T07:25:02.982Z,17.77
2023-05-18T07:28:05.290Z,12.55
2023-05-18T07:31:08.361Z,15.23
2023-05-18T07:34:14.099Z,14.23
2023-05-18T07:37:15.941Z,16.75
2023-05-18T07:40:17.816Z,13.23
2023-05-18T07:43:19.705Z,15.40
2023-05-18T07:46:21.589Z,14.90
2023-05-18T07:49:28.288Z,15.18
2023-05-18T07:52:31.119Z,17.90
2023-05-18T07:55:33.392Z,15.38
2023-05-18T07:58:36.073Z,13.27
2023-05-18T08:01:37.965Z,13.93
2023-05-18T08:04:41.338Z,16.52
2023-05-18T08:07:43.113Z,17.13
2023-05-18T08:10:47.167Z,15.45
2023-05-18T08:13:49.313Z,13.20
2023-05-18T08:16:51.109Z,14.52
2023-05-18T08:19:54.587Z,15.18
2023-05-18T08:22:56.847Z,15.70
2023-05-18T08:25:59.096Z,15.90
2023-05-18T08:29:00.929Z,15.88
2023-05-18T08:32:02.791Z,17.70
2023-05-18T08:35:07.312Z,18.63
2023-05-18T08:38:09.096Z,12.23
2023-05-18T08:41:19.570Z,18.80
2023-05-18T08:44:24.085Z,16.42
2023-05-18T08:47:26.432Z,16.95
2023-05-18T08:50:32.769Z,17.75
2023-05-18T08:53:36.972Z,14.23
2023-05-18T08:56:39.229Z,14.27
2023-05-18T08:59:43.378Z,11.93
2023-05-18T09:02:47.537Z,13.80
2023-05-18T09:05:52.675Z,18.17
2023-05-18T09:08:56.332Z,17.73
2023-05-18T09:11:59.458Z,12.57
2023-05-18T09:15:02.432Z,9.88
2023-05-18T09:18:06.765Z,11.98
2023-05-18T09:21:10.557Z,12.63
2023-05-18T09:24:12.622Z,11.80
2023-05-18T09:27:15.823Z,13.80
2023-05-18T09:30:17.917Z,12.63
2023-05-18T09:33:23.079Z,11.48
2023-05-18T09:36:26.865Z,12.57
2023-05-18T09:39:29.109Z,12.88
2023-05-18T09:42:35.810Z,13.05
2023-05-18T09:45:43.715Z,9.77
2023-05-18T09:48:49.855Z,14.00
2023-05-18T09:51:54.185Z,13.55
2023-05-18T09:54:59.133Z,16.33
2023-05-18T09:58:03.214Z,12.95
2023-05-18T10:01:05.729Z,10.68
2023-05-18T10:04:10.173Z,14.50
2023-05-18T10:07:18.143Z,12.60
2023-05-18T10:10:22.708Z,13.13
2023-05-18T10:13:27.190Z,11.60
2023-05-18T10:16:29.149Z,11.60
2023-05-18T10:19:35.098Z,15.25
2023-05-18T10:22:39.530Z,13.00
2023-05-18T10:25:44.852Z,11.73
2023-05-18T10:28:49.857Z,15.88
2023-05-18T10:31:54.027Z,14.07
2023-05-18T10:34:57.720Z,14.10
2023-05-18T10:38:04.618Z,11.23
2023-05-18T10:41:07.733Z,10.95
2023-05-18T10:44:10.746Z,13.77
2023-05-18T10:47:14.582Z,12.75
2023-05-18T10:50:18.393Z,10.07
2023-05-18T10:53:24.053Z,11.27
2023-05-18T10:56:25.896Z,10.93
2023-05-18T10:59:28.147Z,10.05
2023-05-18T11:02:30.396Z,9.73
2023-05-18T11:05:32.449Z,12.30
2023-05-18T11:08:46.389Z,7.85
2023-05-18T11:11:52.046Z,16.80
2023-05-18T11:14:55.894Z,10.60
2023-05-18T11:18:13.486Z,7.90
2023-05-18T11:21:31.621Z,9.23
2023-05-18T11:24:37.121Z,7.75
2023-05-18T11:27:39.548Z,8.02
2023-05-18T11:30:50.156Z,7.32
2023-05-18T11:33:52.351Z,7.32
2023-05-18T11:36:55.853Z,6.28
2023-05-18T11:40:02.860Z,5.60
2023-05-18T11:43:09.112Z,6.22
2023-05-18T11:46:18.629Z,4.53
2023-05-18T11:49:22.530Z,6.15
2023-05-18T11:52:25.421Z,4.55
2023-05-18T11:55:38.435Z,3.70
2023-05-18T11:58:40.257Z,7.10
2023-05-18T12:01:43.806Z,4.60
2023-05-18T12:04:47.578Z,4.65
2023-05-18T12:07:53.232Z,5.75
2023-05-18T12:10:59.366Z,5.88
2023-05-18T12:14:01.435Z,5.18
2023-05-18T12:17:04.312Z,4.90
2023-05-18T12:20:07.670Z,3.40
2023-05-18T12:23:09.647Z,5.65
2023-05-18T12:26:13.326Z,6.07
2023-05-18T12:29:16.261Z,5.00
2023-05-18T12:32:19.749Z,7.55
2023-05-18T12:35:22.940Z,7.10
2023-05-18T12:38:26.505Z,5.32
2023-05-18T12:41:29.951Z,6.93
2023-05-18T12:44:32.689Z,6.40
2023-05-18T12:47:41.742Z,4.47
2023-05-18T12:50:47.146Z,4.00
2023-05-18T12:53:51.677Z,6.72
2023-05-18T12:56:56.285Z,7.85
2023-05-18T12:59:58.424Z,4.25
2023-05-18T13:03:05.994Z,7.20
2023-05-18T13:06:09.484Z,4.50
2023-05-18T13:09:12.766Z,4.07
2023-05-18T13:12:16.596Z,4.95
2023-05-18T13:15:22.212Z,5.13
2023-05-18T13:18:26.540Z,6.32
2023-05-18T13:21:32.437Z,5.40
2023-05-18T13:24:34.191Z,4.47
2023-05-18T13:27:38.981Z,7.05
2023-05-18T13:30:42.448Z,13.52
2023-05-18T13:33:44.487Z,5.65
2023-05-18T13:36:46.260Z,5.28
2023-05-18T13:39:48.442Z,5.28
2023-05-18T13:42:52.264Z,4.28
2023-05-18T13:45:54.569Z,6.07
2023-05-18T13:48:58.916Z,4.55
2023-05-18T13:52:03.223Z,4.28
2023-05-18T13:55:07.304Z,5.55
2023-05-18T13:58:12.910Z,2.95
2023-05-18T14:01:14.894Z,2.60
2023-05-18T14:04:16.645Z,3.97
2023-05-18T14:07:18.767Z,7.40
2023-05-18T14:10:23.598Z,2.72
2023-05-18T14:13:29.316Z,3.97
2023-05-18T14:16:31.396Z,2.83
2023-05-18T14:19:33.239Z,2.40
2023-05-18T14:22:35.403Z,2.80
2023-05-18T14:25:37.525Z,9.82
2023-05-18T14:28:43.210Z,5.88
2023-05-18T14:31:45.024Z,4.18
2023-05-18T14:34:46.983Z,4.03
2023-05-18T14:37:49.016Z,4.38
2023-05-18T14:40:50.816Z,3.58
2023-05-18T14:43:56.624Z,4.78
2023-05-18T14:46:59.758Z,4.22
2023-05-18T14:50:01.683Z,3.47
2023-05-18T14:53:06.034Z,4.03
2023-05-18T14:56:08.112Z,5.75
2023-05-18T14:59:11.667Z,3.45
2023-05-18T15:02:13.488Z,3.80
2023-05-18T15:05:15.328Z,3.33
2023-05-18T15:08:17.062Z,3.63
2023-05-18T15:11:18.914Z,4.25
2023-05-18T15:14:22.530Z,2.88
2023-05-18T15:17:24.595Z,5.32
2023-05-18T15:20:28.017Z,4.82
2023-05-18T15:23:30.170Z,5.47
2023-05-18T15:26:34.435Z,3.20
2023-05-18T15:29:39.928Z,3.83
2023-05-18T15:32:44.162Z,3.10
2023-05-18T15:35:49.015Z,4.65
2023-05-18T15:38:51.819Z,5.18
2023-05-18T15:41:53.776Z,4.47
2023-05-18T15:44:57.372Z,5.05
2023-05-18T15:47:59.868Z,5.97
2023-05-18T15:51:01.753Z,4.55
2023-05-18T15:54:04.757Z,2.40
2023-05-18T15:57:06.503Z,4.85
2023-05-18T16:00:13.778Z,5.30
2023-05-18T16:03:15.974Z,4.70
2023-05-18T16:06:18.123Z,6.72
2023-05-18T16:09:19.883Z,8.50
2023-05-18T16:12:21.678Z,7.45
2023-05-18T16:15:24.974Z,6.10
2023-05-18T16:18:26.742Z,6.25
2023-05-18T16:21:28.822Z,9.13
2023-05-18T16:24:30.628Z,8.27
2023-05-18T16:27:32.417Z,9.98
2023-05-18T16:30:36.245Z,7.35
2023-05-18T16:33:39.177Z,9.48
2023-05-18T16:36:43.117Z,5.85
2023-05-18T16:39:45.243Z,10.60
2023-05-18T16:42:49.522Z,8.15
2023-05-18T16:45:55.950Z,10.95
2023-05-18T16:48:58.050Z,9.15
2023-05-18T16:52:00.130Z,8.98
2023-05-18T16:55:03.585Z,10.38
2023-05-18T16:58:06.482Z,10.65
2023-05-18T17:01:19.711Z,8.85
2023-05-18T17:04:28.879Z,8.05
2023-05-18T17:07:34.012Z,10.85
2023-05-18T17:10:36.513Z,12.95
2023-05-18T17:13:41.930Z,8.48
2023-05-18T17:16:46.206Z,9.07
2023-05-18T17:19:48.688Z,10.57
2023-05-18T17:22:51.458Z,7.63
2023-05-18T17:26:00.951Z,15.00
2023-05-18T17:29:11.470Z,11.23
2023-05-18T17:32:16.864Z,10.82
2023-05-18T17:35:20.380Z,10.48
2023-05-18T17:38:23.122Z,8.55
2023-05-18T17:41:28.393Z,9.95
2023-05-18T17:44:31.157Z,7.20
2023-05-18T17:47:36.407Z,9.77
2023-05-18T17:50:38.920Z,10.35
2023-05-18T17:53:41.816Z,8.15
2023-05-18T17:56:45.808Z,9.70
2023-05-18T17:59:51.143Z,8.95
2023-05-18T18:02:55.456Z,7.47
2023-05-18T18:05:57.981Z,9.93
2023-05-18T18:09:00.779Z,7.90
2023-05-18T18:12:03.459Z,8.60
2023-05-18T18:15:08.981Z,8.65
2023-05-18T18:18:13.144Z,11.95
2023-05-18T18:21:17.024Z,8.80
2023-05-18T18:24:19.771Z,9.38
2023-05-18T18:27:22.566Z,8.05
2023-05-18T18:30:25.418Z,7.53
2023-05-18T18:33:31.680Z,10.85
2023-05-18T18:36:34.278Z,8.38
2023-05-18T18:39:36.841Z,12.50
2023-05-18T18:42:39.285Z,16.17
2023-05-18T18:45:42.557Z,8.63
2023-05-18T18:48:46.449Z,8.77
2023-05-18T18:51:49.465Z,12.70
2023-05-18T18:54:54.157Z,8.68
2023-05-18T18:57:56.867Z,10.20
2023-05-18T19:01:00.255Z,10.95
2023-05-18T19:04:04.200Z,7.32
2023-05-18T19:07:06.782Z,7.88
2023-05-18T19:10:10.433Z,8.70
2023-05-18T19:13:13.494Z,12.32
2023-05-18T19:16:17.372Z,9.27
2023-05-18T19:19:22.869Z,12.35
2023-05-18T19:22:27.544Z,13.02
2023-05-18T19:25:33.166Z,11.13
2023-05-18T19:28:38.403Z,13.07
2023-05-18T19:31:41.539Z,9.73
2023-05-18T19:34:45.460Z,10.40
2023-05-18T19:37:50.870Z,9.80
2023-05-18T19:40:53.544Z,12.77
2023-05-18T19:43:56.058Z,10.32
2023-05-18T19:47:01.918Z,15.48
2023-05-18T19:50:08.391Z,12.65
2023-05-18T19:53:11.374Z,16.08
2023-05-18T19:56:15.132Z,8.90
2023-05-18T19:59:18.421Z,13.23
2023-05-18T20:02:21.024Z,11.25
2023-05-18T20:05:25.971Z,11.13
2023-05-18T20:08:28.455Z,16.00
2023-05-18T20:11:31.980Z,14.13
2023-05-18T20:14:35.687Z,10.77
2023-05-18T20:17:39.771Z,13.23
2023-05-18T20:20:43.713Z,12.77
2023-05-18T20:23:46.223Z,12.48
2023-05-18T20:26:49.045Z,11.07
2023-05-18T20:29:52.538Z,10.82
2023-05-18T20:32:58.040Z,17.23
2023-05-18T20:36:02.955Z,11.05
2023-05-18T20:39:05.414Z,10.13
2023-05-18T20:42:09.621Z,12.98
2023-05-18T20:45:12.016Z,13.80
2023-05-18T20:48:16.013Z,17.38
2023-05-18T20:51:22.467Z,17.63
2023-05-18T20:54:25.446Z,14.00
2023-05-18T20:57:28.645Z,12.57
2023-05-18T21:00:30.674Z,14.25
2023-05-18T21:03:33.226Z,14.27
2023-05-18T21:06:36.833Z,15.65
2023-05-18T21:09:38.873Z,17.85
2023-05-18T21:12:40.567Z,18.27
2023-05-18T21:15:42.669Z,15.05
2023-05-18T21:18:44.609Z,12.93
2023-05-18T21:21:50.206Z,16.73
2023-05-18T21:24:52.186Z,12.05
2023-05-18T21:27:54.182Z,15.25
2023-05-18T21:30:56.231Z,16.90
2023-05-18T21:34:00.021Z,18.13
2023-05-18T21:37:03.315Z,13.98
2023-05-18T21:40:07.185Z,11.77
2023-05-18T21:43:09.500Z,16.15
2023-05-18T21:46:11.308Z,13.80
2023-05-18T21:49:15.616Z,13.65
2023-05-18T21:52:18.731Z,18.30
2023-05-18T21:55:22.775Z,15.07
2023-05-18T21:58:24.755Z,18.92
2023-05-18T22:01:28.206Z,11.82
2023-05-18T22:04:32.833Z,19.08
2023-05-18T22:07:38.261Z,14.13
2023-05-18T22:10:41.543Z,15.98
2023-05-18T22:13:43.364Z,17.23
2023-05-18T22:16:45.717Z,16.90
2023-05-18T22:19:48.901Z,12.90
2023-05-18T22:22:52.039Z,14.43
2023-05-18T22:25:53.825Z,15.13
2023-05-18T22:28:58.154Z,17.70
2023-05-18T22:32:00.242Z,13.43
2023-05-18T22:35:03.282Z,13.40
2023-05-18T22:38:07.816Z,15.60
2023-05-18T22:41:10.105Z,15.15
2023-05-18T22:44:14.526Z,16.58
2023-05-18T22:47:18.784Z,17.02
2023-05-18T22:50:23.151Z,16.63
2023-05-18T22:53:26.728Z,18.52
2023-05-18T22:56:28.759Z,17.10
2023-05-18T22:59:31.041Z,14.38
2023-05-18T23:02:33.027Z,23.10
2023-05-18T23:05:35.197Z,17.75
2023-05-18T23:08:41.636Z,14.82
2023-05-18T23:11:44.641Z,17.08
2023-05-18T23:14:46.428Z,14.65
2023-05-18T23:17:48.158Z,13.55
2023-05-18T23:20:50.163Z,18.27
2023-05-18T23:23:53.456Z,18.05
2023-05-18T23:26:57.185Z,13.93
2023-05-18T23:29:59.210Z,11.45
2023-05-18T23:33:03.810Z,16.55
2023-05-18T23:36:07.168Z,16.23
2023-05-18T23:39:13.556Z,12.82
2023-05-18T23:42:16.649Z,13.77
2023-05-18T23:45:19.156Z,17.00
2023-05-18T23:48:21.402Z,15.60
2023-05-18T23:51:25.340Z,14.32
2023-05-18T23:54:31.713Z,18.20
2023-05-18T23:57:34.069Z,14.52
